Time;durP1;ratioP1;P1;durP2;ratioP2;P2;SDS_P1;SDS_P2;PMS_P1;PMS_P2;Temp;Humidity;BMP_temperature;BMP_pressure;BME280_temperature;BME280_humidity;BME280_pressure;Samples;Min_cycle;Max_cycle;Signal;HPM_P1;HPM_P2
2023/07/27 00:01:58;;;;;;;6.50;3.63;;;14.60;99.90;;;;;;5012250;28;21015;-90
2023/07/27 00:04:25;;;;;;;6.30;4.00;;;14.60;99.90;;;;;;5012410;28;20521;-89
2023/07/27 00:06:53;;;;;;;4.30;3.97;;;14.50;99.90;;;;;;5012716;28;20458;-89
2023/07/27 00:09:20;;;;;;;6.53;3.90;;;14.50;99.90;;;;;;5012600;28;20445;-89
2023/07/27 00:11:47;;;;;;;6.27;3.70;;;14.50;99.90;;;;;;5012645;28;20573;-89
2023/07/27 00:14:13;;;;;;;6.43;4.17;;;14.50;99.90;;;;;;5018078;28;20500;-89
2023/07/27 00:16:40;;;;;;;5.87;4.23;;;14.50;99.90;;;;;;5012816;28;20429;-90
2023/07/27 00:19:07;;;;;;;4.90;4.10;;;14.50;99.90;;;;;;5012241;28;20992;-89
2023/07/27 00:21:33;;;;;;;4.40;4.00;;;14.50;99.90;;;;;;5012449;28;20429;-89
2023/07/27 00:24:01;;;;;;;6.93;3.87;;;14.60;99.90;;;;;;5012436;28;20454;-89
2023/07/27 00:26:28;;;;;;;5.30;4.13;;;14.70;99.90;;;;;;5011949;28;20414;-90
2023/07/27 00:28:55;;;;;;;3.90;3.60;;;14.60;99.90;;;;;;5012173;28;20524;-87
2023/07/27 00:31:20;;;;;;;7.00;4.13;;;14.50;99.90;;;;;;5011874;28;20473;-89
2023/07/27 00:33:47;;;;;;;6.00;4.07;;;14.50;99.90;;;;;;5012334;28;20813;-89
2023/07/27 00:36:14;;;;;;;6.20;4.17;;;14.50;99.90;;;;;;5012320;28;20203;-89
2023/07/27 00:38:40;;;;;;;4.10;3.77;;;14.50;99.90;;;;;;5012140;28;20860;-89
2023/07/27 00:41:08;;;;;;;6.10;4.07;;;14.50;99.90;;;;;;5012360;28;20454;-90
2023/07/27 00:43:35;;;;;;;4.40;4.00;;;14.40;99.90;;;;;;5012218;28;20875;-89
2023/07/27 00:46:02;;;;;;;4.30;3.90;;;14.40;99.90;;;;;;5012289;28;20520;-89
2023/07/27 00:48:29;;;;;;;4.30;3.97;;;14.40;99.90;;;;;;5012354;28;20470;-88
2023/07/27 00:50:56;;;;;;;4.87;4.43;;;14.40;99.90;;;;;;5012041;28;20490;-90
2023/07/27 00:53:23;;;;;;;5.80;4.67;;;14.40;99.90;;;;;;5013321;28;21054;-89
2023/07/27 00:55:51;;;;;;;7.03;4.77;;;14.40;99.90;;;;;;5015567;28;20455;-89
2023/07/27 00:58:19;;;;;;;5.23;4.67;;;14.30;99.90;;;;;;5015611;28;21061;-89
2023/07/27 01:00:46;;;;;;;7.17;5.07;;;14.30;99.90;;;;;;5015877;28;20433;-89
2023/07/27 01:03:13;;;;;;;6.40;5.00;;;14.50;99.90;;;;;;5016042;28;20433;-90
2023/07/27 01:05:39;;;;;;;4.87;4.40;;;14.20;99.90;;;;;;5015732;28;20432;-89
2023/07/27 01:08:07;;;;;;;5.03;4.23;;;14.30;99.90;;;;;;5015448;28;20510;-89
2023/07/27 01:10:42;;;;;;;5.70;4.53;;;14.30;99.90;;;;;;5016356;28;20425;-90
2023/07/27 01:13:13;;;;;;;6.83;4.40;;;14.30;99.90;;;;;;5015300;28;20438;-90
2023/07/27 01:15:48;;;;;;;5.10;4.57;;;14.20;99.90;;;;;;5015964;28;20429;-90
2023/07/27 01:18:22;;;;;;;4.73;4.33;;;14.30;99.90;;;;;;5015359;28;20452;-89
2023/07/27 01:20:59;;;;;;;13.13;4.73;;;14.40;99.90;;;;;;5015127;28;20960;-89
2023/07/27 01:23:46;;;;;;;5.13;4.63;;;14.30;99.90;;;;;;5014890;28;20428;-89
2023/07/27 01:26:34;;;;;;;6.00;4.90;;;14.30;99.90;;;;;;5015165;28;20508;-89
2023/07/27 01:29:09;;;;;;;4.83;4.33;;;14.20;99.90;;;;;;5015517;28;20536;-89
2023/07/27 01:31:42;;;;;;;6.23;4.60;;;14.20;99.90;;;;;;5008379;28;20460;-89
2023/07/27 01:34:15;;;;;;;6.30;5.47;;;14.20;99.90;;;;;;5015066;28;20505;-89
2023/07/27 01:36:44;;;;;;;7.90;5.20;;;14.20;99.90;;;;;;5015093;28;20454;-89
2023/07/27 01:39:12;;;;;;;7.00;4.77;;;14.10;99.90;;;;;;5015157;28;20799;-91
2023/07/27 01:41:42;;;;;;;7.83;4.80;;;14.10;99.90;;;;;;5015028;28;20449;-91
2023/07/27 01:44:10;;;;;;;5.13;4.63;;;14.30;99.90;;;;;;5015187;28;20537;-89
2023/07/27 01:46:40;;;;;;;9.57;5.10;;;14.20;99.90;;;;;;5015249;28;20454;-89
2023/07/27 01:49:09;;;;;;;5.53;5.03;;;14.20;99.90;;;;;;5015443;28;20852;-88
2023/07/27 01:51:37;;;;;;;7.30;5.03;;;14.20;99.90;;;;;;5014783;28;20481;-88
2023/07/27 01:54:05;;;;;;;7.13;5.70;;;14.20;99.90;;;;;;5014807;28;20509;-90
2023/07/27 01:56:32;;;;;;;6.93;5.63;;;14.20;99.90;;;;;;5014772;28;20455;-90
2023/07/27 01:59:00;;;;;;;7.70;5.23;;;14.20;99.90;;;;;;5014935;28;20529;-90
2023/07/27 02:01:29;;;;;;;9.60;5.80;;;14.10;99.90;;;;;;5014688;28;21177;-90
2023/07/27 02:03:57;;;;;;;6.50;5.40;;;14.10;99.90;;;;;;5014937;28;20505;-91
2023/07/27 02:06:23;;;;;;;6.70;5.50;;;14.10;99.90;;;;;;5014792;28;20454;-89
2023/07/27 02:08:50;;;;;;;8.20;5.00;;;14.10;99.90;;;;;;5014836;28;20485;-90
2023/07/27 02:11:20;;;;;;;6.57;5.53;;;14.00;99.90;;;;;;5014677;28;20503;-90
2023/07/27 02:13:52;;;;;;;5.30;4.80;;;14.00;99.90;;;;;;5016370;28;20451;-89
2023/07/27 02:16:24;;;;;;;13.43;6.23;;;14.00;99.90;;;;;;5015923;28;20459;-90
2023/07/27 02:18:53;;;;;;;11.30;5.67;;;14.00;99.90;;;;;;5015804;28;20452;-89
2023/07/27 02:21:22;;;;;;;8.93;5.63;;;13.90;99.90;;;;;;5015468;28;20455;-90
2023/07/27 02:23:49;;;;;;;8.40;5.60;;;13.80;99.90;;;;;;5016247;28;20945;-89
2023/07/27 02:26:16;;;;;;;11.47;5.70;;;13.80;99.90;;;;;;5015727;28;20521;-89
2023/07/27 02:28:43;;;;;;;6.63;5.87;;;13.80;99.90;;;;;;5016224;28;20517;-90
2023/07/27 02:31:10;;;;;;;9.20;5.90;;;13.80;99.90;;;;;;5015243;28;20798;-89
2023/07/27 02:33:37;;;;;;;7.87;5.90;;;13.80;99.90;;;;;;5015873;28;20928;-89
2023/07/27 02:36:03;;;;;;;7.10;5.40;;;13.80;99.90;;;;;;5016518;28;20699;-88
2023/07/27 02:38:32;;;;;;;6.40;5.80;;;13.80;99.90;;;;;;5015927;28;20934;-89
2023/07/27 02:40:58;;;;;;;9.63;6.27;;;13.80;99.90;;;;;;5015373;28;20417;-90
2023/07/27 02:43:25;;;;;;;12.60;6.50;;;13.80;99.90;;;;;;5016047;28;20473;-88
2023/07/27 02:45:58;;;;;;;7.90;5.80;;;13.90;99.90;;;;;;5015368;28;20849;-90
2023/07/27 02:48:24;;;;;;;8.23;5.83;;;13.90;99.90;;;;;;5014541;28;20466;-89
2023/07/27 02:50:52;;;;;;;6.60;5.90;;;14.00;99.90;;;;;;5013855;28;20432;-90
2023/07/27 02:53:18;;;;;;;11.27;5.90;;;14.00;99.90;;;;;;5013683;28;20486;-91
2023/07/27 02:55:56;;;;;;;11.37;6.47;;;14.00;99.90;;;;;;5013992;28;20520;-91
2023/07/27 02:58:23;;;;;;;7.20;6.40;;;14.00;99.90;;;;;;5013882;28;20561;-91
2023/07/27 03:00:51;;;;;;;7.77;5.70;;;14.00;99.90;;;;;;5013563;28;20929;-91
2023/07/27 03:03:18;;;;;;;6.20;5.60;;;14.00;99.90;;;;;;5013556;28;20454;-91
2023/07/27 03:05:45;;;;;;;10.30;7.20;;;14.10;99.90;;;;;;5035482;28;20446;-95
2023/07/27 03:08:11;;;;;;;10.53;6.27;;;14.10;99.90;;;;;;5038451;28;20489;-94
2023/07/27 03:10:39;;;;;;;10.53;5.60;;;14.10;99.90;;;;;;5012801;28;20465;-92
2023/07/27 03:13:07;;;;;;;6.33;5.40;;;14.10;99.90;;;;;;5013524;28;20487;-91
2023/07/27 03:15:33;;;;;;;10.73;6.07;;;14.10;99.90;;;;;;5012786;28;20447;-91
2023/07/27 03:18:00;;;;;;;8.27;5.23;;;14.10;99.90;;;;;;5013177;28;20445;-91
2023/07/27 03:20:27;;;;;;;7.53;5.70;;;14.20;99.90;;;;;;5013095;28;20433;-90
2023/07/27 03:22:53;;;;;;;7.23;5.33;;;14.20;99.90;;;;;;5013551;28;20436;-90
2023/07/27 03:25:20;;;;;;;8.30;5.37;;;14.20;99.90;;;;;;5013439;28;20456;-90
2023/07/27 03:27:47;;;;;;;7.37;4.87;;;14.10;99.90;;;;;;5012748;28;20502;-89
2023/07/27 03:30:15;;;;;;;7.50;5.53;;;14.10;99.90;;;;;;5013120;28;20459;-89
2023/07/27 03:32:41;;;;;;;5.30;4.80;;;14.10;99.90;;;;;;5005478;28;20523;-88
2023/07/27 03:35:09;;;;;;;5.63;5.10;;;14.10;99.90;;;;;;5013182;28;20529;-89
2023/07/27 03:37:35;;;;;;;7.07;5.10;;;14.10;99.90;;;;;;5013928;28;20466;-90
2023/07/27 03:40:02;;;;;;;6.20;5.10;;;14.10;99.90;;;;;;5013830;28;20433;-89
2023/07/27 03:42:29;;;;;;;8.80;5.30;;;14.20;99.90;;;;;;5012770;28;20447;-89
2023/07/27 03:44:56;;;;;;;6.00;5.00;;;14.20;99.90;;;;;;5012714;28;21003;-89
2023/07/27 03:47:24;;;;;;;7.83;6.03;;;14.20;99.90;;;;;;5012354;28;20919;-89
2023/07/27 03:49:50;;;;;;;6.83;6.13;;;14.20;99.90;;;;;;5012786;28;20503;-89
2023/07/27 03:52:17;;;;;;;7.17;5.80;;;14.10;99.90;;;;;;5012542;28;20540;-89
2023/07/27 03:54:43;;;;;;;6.77;5.50;;;14.10;99.90;;;;;;5012960;28;20487;-89
2023/07/27 03:57:10;;;;;;;8.77;5.37;;;14.10;99.90;;;;;;5012649;28;20923;-89
2023/07/27 03:59:37;;;;;;;7.10;5.97;;;14.10;99.90;;;;;;5012443;28;20436;-87
2023/07/27 04:02:04;;;;;;;6.90;5.70;;;14.10;99.90;;;;;;5012947;28;20505;-90
2023/07/27 04:04:32;;;;;;;7.30;6.10;;;14.10;99.90;;;;;;5012961;28;20477;-90
2023/07/27 04:06:58;;;;;;;10.40;5.93;;;14.10;99.90;;;;;;5012681;28;20437;-89
2023/07/27 04:09:25;;;;;;;7.50;5.73;;;14.00;99.90;;;;;;5012384;28;20530;-89
2023/07/27 04:11:53;;;;;;;10.63;6.07;;;14.10;99.90;;;;;;5012079;28;20442;-89
2023/07/27 04:14:20;;;;;;;6.67;5.90;;;14.20;99.90;;;;;;5012652;28;20532;-89
2023/07/27 04:16:46;;;;;;;9.97;7.10;;;14.30;99.90;;;;;;5012841;28;20504;-89
2023/07/27 04:19:13;;;;;;;8.40;6.70;;;14.30;99.90;;;;;;5012450;28;20469;-89
2023/07/27 04:21:41;;;;;;;13.93;6.73;;;14.30;99.90;;;;;;5012422;28;20454;-89
2023/07/27 04:24:08;;;;;;;7.90;6.37;;;14.40;99.90;;;;;;5012255;28;21034;-91
2023/07/27 04:26:35;;;;;;;8.17;6.23;;;14.40;99.90;;;;;;5012123;28;20454;-90
2023/07/27 04:29:01;;;;;;;7.77;5.60;;;14.40;99.90;;;;;;5014657;28;20482;-90
2023/07/27 04:31:28;;;;;;;7.67;5.60;;;14.40;99.90;;;;;;5016506;28;20458;-90
2023/07/27 04:33:55;;;;;;;5.60;5.10;;;14.50;99.90;;;;;;5016517;28;20864;-90
2023/07/27 04:36:22;;;;;;;10.60;6.23;;;14.40;99.90;;;;;;5016481;28;20832;-89
2023/07/27 04:38:50;;;;;;;8.07;6.47;;;14.40;99.90;;;;;;5016186;28;20535;-89
2023/07/27 04:41:17;;;;;;;8.50;5.97;;;14.20;99.90;;;;;;5016050;28;20516;-90
2023/07/27 04:43:44;;;;;;;8.00;5.90;;;14.30;99.90;;;;;;5016274;28;20442;-90
2023/07/27 04:46:11;;;;;;;6.80;5.67;;;14.20;99.90;;;;;;5015838;28;20457;-89
2023/07/27 04:48:37;;;;;;;6.47;5.83;;;14.20;99.90;;;;;;5015450;28;20524;-89
2023/07/27 04:51:04;;;;;;;8.33;5.80;;;14.20;99.90;;;;;;5016766;28;20467;-89
2023/07/27 04:53:31;;;;;;;9.50;6.00;;;14.30;99.90;;;;;;5016728;28;20452;-90
2023/07/27 04:55:59;;;;;;;12.37;6.00;;;14.30;99.90;;;;;;5016767;28;20458;-89
2023/07/27 04:58:26;;;;;;;7.40;5.83;;;14.30;99.90;;;;;;5017161;28;20477;-92
2023/07/27 05:00:54;;;;;;;11.03;6.10;;;14.30;99.90;;;;;;5016488;28;20424;-90
2023/07/27 05:03:20;;;;;;;11.43;5.50;;;14.30;99.90;;;;;;5031817;28;20437;-90
2023/07/27 05:05:47;;;;;;;7.80;5.67;;;14.40;99.90;;;;;;5018074;28;20896;-90
2023/07/27 05:08:14;;;;;;;5.97;5.43;;;14.40;99.90;;;;;;5017943;28;20491;-90
2023/07/27 05:10:40;;;;;;;7.30;5.80;;;14.40;99.90;;;;;;5017273;28;20465;-91
2023/07/27 05:13:09;;;;;;;9.87;5.67;;;14.40;99.90;;;;;;5016182;28;20486;-90
2023/07/27 05:15:36;;;;;;;7.97;5.80;;;14.60;99.90;;;;;;5015985;28;20420;-90
2023/07/27 05:18:02;;;;;;;12.30;6.67;;;14.40;99.90;;;;;;5016121;28;20872;-90
2023/07/27 05:20:29;;;;;;;6.23;5.53;;;14.50;99.90;;;;;;5015886;28;20485;-90
2023/07/27 05:22:56;;;;;;;9.50;6.53;;;14.50;99.90;;;;;;5015357;28;20429;-90
2023/07/27 05:25:22;;;;;;;7.97;5.40;;;14.50;99.90;;;;;;5016627;28;20956;-90
2023/07/27 05:27:49;;;;;;;9.30;6.30;;;14.50;99.90;;;;;;5015696;28;20975;-90
2023/07/27 05:30:17;;;;;;;7.77;5.70;;;14.50;99.90;;;;;;5015852;28;20428;-90
2023/07/27 05:32:44;;;;;;;8.43;5.93;;;14.60;99.90;;;;;;5016747;28;20486;-91
2023/07/27 05:35:11;;;;;;;7.90;5.90;;;14.50;99.90;;;;;;5017025;28;20454;-91
2023/07/27 05:37:39;;;;;;;7.73;5.80;;;14.40;99.90;;;;;;5018733;28;21034;-90
2023/07/27 05:40:09;;;;;;;9.63;6.30;;;14.40;99.90;;;;;;5015308;28;20462;-90
2023/07/27 05:42:35;;;;;;;7.90;5.97;;;14.40;99.90;;;;;;5018554;28;20835;-90
2023/07/27 05:45:02;;;;;;;10.83;7.03;;;14.40;99.90;;;;;;5018194;28;20872;-89
2023/07/27 05:47:30;;;;;;;9.50;6.73;;;14.50;99.90;;;;;;5016849;28;20504;-90
2023/07/27 05:49:58;;;;;;;13.97;6.50;;;14.50;99.90;;;;;;5017436;28;20429;-90
2023/07/27 05:52:24;;;;;;;12.57;6.90;;;14.50;99.90;;;;;;5015704;28;20469;-90
2023/07/27 05:54:51;;;;;;;17.30;7.27;;;14.60;99.90;;;;;;5016281;28;21007;-90
2023/07/27 05:57:18;;;;;;;15.50;7.53;;;14.50;99.90;;;;;;5015362;28;20451;-90
2023/07/27 05:59:45;;;;;;;10.00;7.93;;;14.50;99.90;;;;;;5015693;28;20441;-90
2023/07/27 06:02:12;;;;;;;13.10;7.70;;;14.50;99.90;;;;;;5015355;28;20487;-90
2023/07/27 06:04:40;;;;;;;12.87;8.00;;;14.50;99.90;;;;;;5015309;28;20792;-90
2023/07/27 06:07:07;;;;;;;12.63;8.00;;;14.50;99.90;;;;;;5016148;28;20550;-89
2023/07/27 06:09:36;;;;;;;12.20;8.40;;;14.40;99.90;;;;;;5015640;28;20478;-90
2023/07/27 06:12:09;;;;;;;13.50;8.77;;;14.50;99.90;;;;;;5021956;28;20448;-92
2023/07/27 06:14:36;;;;;;;16.20;7.90;;;14.50;99.90;;;;;;5039271;28;20463;-92
2023/07/27 06:17:03;;;;;;;12.00;7.43;;;14.60;99.90;;;;;;5034892;28;20928;-89
2023/07/27 06:19:29;;;;;;;14.40;8.00;;;14.60;99.90;;;;;;5014983;28;20482;-90
2023/07/27 06:21:57;;;;;;;10.50;7.33;;;14.60;99.90;;;;;;5014787;28;20911;-90
2023/07/27 06:24:24;;;;;;;12.00;6.70;;;14.70;99.90;;;;;;5014863;28;20454;-90
2023/07/27 06:26:51;;;;;;;12.90;8.13;;;14.70;99.90;;;;;;5013976;28;20442;-89
2023/07/27 06:29:18;;;;;;;9.03;7.47;;;14.60;99.90;;;;;;5014166;28;20468;-90
2023/07/27 06:31:44;;;;;;;8.63;6.80;;;14.60;99.90;;;;;;5014019;28;20458;-90
2023/07/27 06:34:11;;;;;;;12.43;8.83;;;14.50;99.90;;;;;;5013915;28;20493;-88
2023/07/27 06:36:38;;;;;;;13.37;7.50;;;14.50;99.90;;;;;;5014044;28;20951;-90
2023/07/27 06:39:06;;;;;;;13.83;8.20;;;14.40;99.90;;;;;;5013725;28;20893;-89
2023/07/27 06:41:32;;;;;;;16.43;9.20;;;14.30;99.90;;;;;;5013484;28;20454;-89
2023/07/27 06:43:59;;;;;;;14.23;8.20;;;14.30;99.90;;;;;;5013632;28;20455;-90
2023/07/27 06:46:26;;;;;;;10.70;7.73;;;14.30;99.90;;;;;;5013932;28;20461;-90
2023/07/27 06:48:53;;;;;;;11.97;8.10;;;14.30;99.90;;;;;;5014306;28;20477;-90
2023/07/27 06:51:20;;;;;;;14.60;9.10;;;14.30;99.90;;;;;;5013826;28;20527;-90
2023/07/27 06:53:46;;;;;;;14.93;8.07;;;14.30;99.90;;;;;;5014830;28;20514;-90
2023/07/27 06:56:14;;;;;;;12.70;8.83;;;14.30;99.90;;;;;;5014269;28;20421;-90
2023/07/27 06:58:42;;;;;;;13.53;9.00;;;14.30;99.90;;;;;;5017237;28;20453;-90
2023/07/27 07:01:10;;;;;;;11.57;9.40;;;14.30;99.90;;;;;;5015328;28;20560;-90
2023/07/27 07:03:36;;;;;;;16.10;10.80;;;14.40;99.90;;;;;;5017196;28;20489;-90
2023/07/27 07:06:04;;;;;;;17.40;10.57;;;14.40;99.90;;;;;;5015495;28;20960;-90
2023/07/27 07:08:30;;;;;;;21.70;12.07;;;14.40;99.90;;;;;;5015934;28;20468;-89
2023/07/27 07:10:58;;;;;;;17.77;12.20;;;14.40;99.90;;;;;;5017149;28;20458;-90
2023/07/27 07:13:27;;;;;;;17.00;11.97;;;14.30;99.90;;;;;;5016048;28;20485;-89
2023/07/27 07:15:53;;;;;;;18.43;13.23;;;14.40;99.90;;;;;;5017015;28;20463;-91
2023/07/27 07:18:20;;;;;;;22.93;13.30;;;14.40;99.90;;;;;;5014476;28;20478;-89
2023/07/27 07:20:47;;;;;;;19.30;13.67;;;14.30;99.90;;;;;;5014497;28;20456;-90
2023/07/27 07:23:14;;;;;;;23.93;12.90;;;14.30;99.90;;;;;;5014749;28;20481;-90
2023/07/27 07:25:41;;;;;;;18.40;13.33;;;14.30;99.90;;;;;;5015218;28;20860;-89
2023/07/27 07:28:08;;;;;;;16.80;12.73;;;14.30;99.90;;;;;;5029324;28;20474;-90
2023/07/27 07:30:38;;;;;;;23.10;13.23;;;14.30;99.90;;;;;;5014836;28;20513;-91
2023/07/27 07:33:04;;;;;;;19.30;13.00;;;14.30;99.90;;;;;;5015376;28;20478;-91
2023/07/27 07:35:34;;;;;;;25.83;13.63;;;14.30;99.90;;;;;;5015646;28;20473;-90
2023/07/27 07:38:01;;;;;;;23.40;14.87;;;14.30;99.90;;;;;;5014606;28;20482;-90
2023/07/27 07:40:28;;;;;;;25.00;14.50;;;14.30;99.90;;;;;;5014061;28;20455;-89
2023/07/27 07:42:55;;;;;;;17.90;13.37;;;14.30;99.90;;;;;;5015385;28;20964;-91
2023/07/27 07:45:22;;;;;;;19.60;14.13;;;14.30;99.90;;;;;;5014360;28;20816;-89
2023/07/27 07:47:50;;;;;;;19.83;13.90;;;14.30;99.90;;;;;;5015800;28;20524;-90
2023/07/27 07:50:16;;;;;;;19.70;14.53;;;14.30;99.90;;;;;;5014752;28;20454;-89
2023/07/27 07:52:43;;;;;;;18.43;14.93;;;14.30;99.90;;;;;;5014838;28;20454;-89
2023/07/27 07:55:11;;;;;;;22.57;15.00;;;14.30;99.90;;;;;;5013835;28;20493;-90
2023/07/27 07:57:38;;;;;;;22.30;15.70;;;14.20;99.90;;;;;;5013688;28;20577;-90
2023/07/27 08:00:06;;;;;;;21.57;15.07;;;14.20;99.90;;;;;;5013329;28;20451;-91
2023/07/27 08:02:33;;;;;;;20.50;15.67;;;14.30;99.90;;;;;;5014048;28;20879;-89
2023/07/27 08:05:01;;;;;;;20.80;15.30;;;14.30;99.90;;;;;;5014197;28;20450;-91
2023/07/27 08:07:28;;;;;;;21.60;15.20;;;14.30;99.90;;;;;;5014016;28;20830;-88
2023/07/27 08:09:54;;;;;;;19.67;14.77;;;14.30;99.90;;;;;;5014569;28;20495;-90
2023/07/27 08:12:21;;;;;;;23.13;15.90;;;14.30;99.90;;;;;;5014375;28;20489;-90
2023/07/27 08:14:48;;;;;;;21.40;15.33;;;14.30;99.90;;;;;;5014099;28;20830;-90
2023/07/27 08:17:14;;;;;;;22.97;16.17;;;14.30;99.90;;;;;;5014005;28;20458;-90
2023/07/27 08:19:41;;;;;;;28.87;16.53;;;14.30;99.90;;;;;;5013616;28;20553;-91
2023/07/27 08:22:09;;;;;;;23.40;15.57;;;14.30;99.90;;;;;;5014053;28;21032;-89
2023/07/27 08:24:36;;;;;;;22.10;15.60;;;14.40;99.90;;;;;;5013660;28;20889;-90
2023/07/27 08:27:04;;;;;;;22.07;15.17;;;14.40;99.90;;;;;;5014380;28;20463;-89
2023/07/27 08:29:31;;;;;;;20.43;14.73;;;14.40;99.90;;;;;;5013807;28;20560;-89
2023/07/27 08:31:58;;;;;;;23.77;15.50;;;14.40;99.90;;;;;;5015349;28;20964;-90
2023/07/27 08:34:24;;;;;;;18.00;14.43;;;14.40;99.90;;;;;;5015679;28;20468;-90
2023/07/27 08:36:52;;;;;;;16.87;13.00;;;14.40;99.90;;;;;;5015574;28;20536;-89
2023/07/27 08:39:20;;;;;;;15.67;11.50;;;14.50;99.90;;;;;;5016113;28;20478;-91
2023/07/27 08:41:47;;;;;;;14.83;11.90;;;14.50;99.90;;;;;;5015181;28;20466;-89
2023/07/27 08:44:14;;;;;;;12.90;10.13;;;14.50;99.90;;;;;;5014457;28;20425;-89
2023/07/27 08:46:42;;;;;;;14.53;10.13;;;14.50;99.90;;;;;;5014729;28;20461;-89
2023/07/27 08:49:13;;;;;;;9.90;8.50;;;14.50;99.90;;;;;;5015759;28;20474;-89
2023/07/27 08:51:43;;;;;;;10.43;8.03;;;14.60;99.90;;;;;;5014760;28;20413;-90
2023/07/27 08:54:10;;;;;;;9.57;8.10;;;14.60;99.90;;;;;;5014590;28;20478;-89
2023/07/27 08:56:39;;;;;;;11.07;8.03;;;14.60;99.90;;;;;;5016755;28;20458;-90
2023/07/27 08:59:05;;;;;;;9.90;8.40;;;14.80;99.90;;;;;;5014518;28;20474;-91
2023/07/27 09:01:32;;;;;;;7.80;7.03;;;14.70;99.90;;;;;;5013124;28;20853;-88
2023/07/27 09:03:59;;;;;;;7.13;6.53;;;14.70;99.90;;;;;;5014230;28;20458;-88
2023/07/27 09:06:40;;;;;;;9.03;7.30;;;14.70;99.90;;;;;;5015480;28;20498;-89
2023/07/27 09:09:14;;;;;;;7.60;6.60;;;14.70;99.90;;;;;;5005695;28;21055;-89
2023/07/27 09:11:43;;;;;;;10.20;5.87;;;14.80;99.90;;;;;;5012756;28;20435;-89
2023/07/27 09:14:10;;;;;;;6.27;5.67;;;14.80;99.90;;;;;;5014514;28;20489;-88
2023/07/27 09:16:37;;;;;;;6.93;5.23;;;14.80;99.90;;;;;;5017065;28;20512;-90
2023/07/27 09:19:04;;;;;;;5.60;5.20;;;15.00;99.90;;;;;;5030460;28;20452;-89
2023/07/27 09:21:39;;;;;;;5.30;4.80;;;14.90;99.90;;;;;;5040241;28;20409;-89
2023/07/27 09:24:10;;;;;;;4.40;4.10;;;14.80;99.90;;;;;;5020036;28;20482;-88
2023/07/27 09:26:46;;;;;;;4.73;3.10;;;14.90;99.90;;;;;;5016025;28;20517;-89
2023/07/27 09:29:13;;;;;;;3.60;3.30;;;14.90;99.90;;;;;;5015729;28;20476;-87
2023/07/27 09:31:47;;;;;;;3.60;3.40;;;14.90;99.90;;;;;;5015719;28;20427;-89
2023/07/27 09:34:13;;;;;;;3.43;3.10;;;14.90;99.90;;;;;;5015762;28;20460;-89
2023/07/27 09:36:40;;;;;;;3.40;3.20;;;15.00;99.90;;;;;;5015266;28;20440;-89
2023/07/27 09:39:07;;;;;;;3.10;2.93;;;15.00;99.90;;;;;;5015002;28;21064;-88
2023/07/27 09:41:34;;;;;;;3.10;2.87;;;15.00;99.90;;;;;;5016225;28;21208;-89
2023/07/27 09:44:03;;;;;;;7.30;2.43;;;15.10;99.90;;;;;;5017980;28;20492;-89
2023/07/27 09:46:30;;;;;;;2.70;2.60;;;15.10;99.90;;;;;;5017532;28;20429;-88
2023/07/27 09:48:58;;;;;;;3.23;3.03;;;15.20;99.90;;;;;;5017325;28;21038;-89
2023/07/27 09:51:27;;;;;;;4.10;3.20;;;15.10;99.90;;;;;;5017279;28;20436;-89
2023/07/27 09:53:55;;;;;;;4.60;3.83;;;15.20;99.90;;;;;;5016677;28;20975;-89
2023/07/27 09:56:23;;;;;;;5.40;4.90;;;15.20;99.90;;;;;;5016762;28;20452;-88
2023/07/27 09:58:49;;;;;;;7.20;6.10;;;15.20;99.90;;;;;;5016755;28;20874;-89
2023/07/27 10:01:18;;;;;;;7.00;6.40;;;15.20;99.90;;;;;;5017190;28;20923;-88
2023/07/27 10:03:45;;;;;;;7.70;6.13;;;15.20;99.90;;;;;;5016127;28;20516;-88
2023/07/27 10:06:15;;;;;;;7.40;6.40;;;15.20;99.90;;;;;;5016549;28;20484;-88
2023/07/27 10:08:43;;;;;;;7.83;7.03;;;15.20;99.90;;;;;;5016145;28;20458;-89
2023/07/27 10:11:10;;;;;;;8.77;7.83;;;15.20;99.90;;;;;;5000147;28;20888;-89
2023/07/27 10:13:39;;;;;;;8.60;7.70;;;15.20;99.90;;;;;;5016589;28;20441;-88
2023/07/27 10:16:10;;;;;;;9.03;8.13;;;15.20;99.90;;;;;;5016583;28;20461;-89
2023/07/27 10:18:43;;;;;;;9.23;8.10;;;15.20;99.90;;;;;;5017188;28;20493;-89
2023/07/27 10:21:26;;;;;;;9.60;8.60;;;15.40;99.90;;;;;;5015880;28;20432;-89
2023/07/27 10:23:55;;;;;;;10.83;7.97;;;15.50;99.90;;;;;;5017366;28;20429;-88
2023/07/27 10:26:39;;;;;;;9.23;8.30;;;15.60;99.90;;;;;;5015708;28;20919;-88
2023/07/27 10:29:15;;;;;;;8.87;7.73;;;15.60;99.90;;;;;;5014745;28;20455;-88
2023/07/27 10:31:43;;;;;;;9.53;8.33;;;15.70;99.90;;;;;;5014985;28;20436;-88
2023/07/27 10:34:16;;;;;;;10.70;8.83;;;15.70;99.90;;;;;;5014284;28;20460;-89
2023/07/27 10:36:51;;;;;;;12.53;9.70;;;15.70;99.90;;;;;;5014829;28;20856;-88
2023/07/27 10:39:18;;;;;;;10.83;9.70;;;15.80;99.90;;;;;;5014437;28;20436;-89
2023/07/27 10:41:59;;;;;;;12.23;9.53;;;15.80;99.90;;;;;;5014397;28;20671;-88
2023/07/27 10:44:26;;;;;;;16.77;10.10;;;15.80;99.90;;;;;;5015114;28;20435;-90
2023/07/27 10:46:56;;;;;;;11.37;9.20;;;15.90;99.90;;;;;;5016143;28;20488;-88
2023/07/27 10:49:24;;;;;;;9.90;8.33;;;15.90;99.90;;;;;;5016084;28;20437;-88
2023/07/27 10:51:51;;;;;;;10.50;8.10;;;16.10;99.90;;;;;;5014862;28;20429;-89
2023/07/27 10:54:17;;;;;;;7.77;6.80;;;15.90;99.90;;;;;;5015149;28;21009;-89
2023/07/27 10:56:44;;;;;;;7.40;6.70;;;15.90;99.90;;;;;;5015272;28;20520;-90
2023/07/27 10:59:15;;;;;;;11.00;7.17;;;15.90;99.90;;;;;;5014978;28;20452;-89
2023/07/27 11:01:42;;;;;;;6.83;6.30;;;15.90;99.90;;;;;;5014696;28;20451;-89
2023/07/27 11:04:10;;;;;;;6.90;6.27;;;15.90;99.90;;;;;;5014393;28;20446;-89
2023/07/27 11:06:46;;;;;;;6.17;5.67;;;16.00;99.90;;;;;;5014564;28;20452;-89
2023/07/27 11:09:15;;;;;;;7.20;6.50;;;16.00;99.90;;;;;;5014782;28;20456;-90
2023/07/27 11:11:42;;;;;;;7.33;6.53;;;16.00;99.90;;;;;;5014930;28;20454;-89
2023/07/27 11:14:08;;;;;;;6.63;5.80;;;16.10;99.90;;;;;;5014580;28;20429;-89
2023/07/27 11:16:37;;;;;;;8.27;5.90;;;16.10;99.90;;;;;;5014344;28;20911;-90
2023/07/27 11:19:06;;;;;;;9.93;6.70;;;16.10;99.90;;;;;;5014788;28;20516;-89
2023/07/27 11:21:33;;;;;;;6.90;6.20;;;16.10;99.90;;;;;;5013549;28;20888;-89
2023/07/27 11:24:03;;;;;;;6.60;5.90;;;16.10;99.90;;;;;;5013906;28;20462;-89
2023/07/27 11:26:30;;;;;;;7.03;5.40;;;16.10;99.90;;;;;;5014113;28;20493;-88
2023/07/27 11:28:58;;;;;;;6.77;6.17;;;16.20;99.90;;;;;;5014378;28;20528;-87
2023/07/27 11:31:24;;;;;;;5.70;5.20;;;16.20;99.90;;;;;;5013617;28;20425;-89
2023/07/27 11:33:51;;;;;;;6.33;5.80;;;16.20;99.90;;;;;;5013341;28;20440;-88
2023/07/27 11:36:18;;;;;;;5.47;4.97;;;16.10;99.90;;;;;;5013148;28;20879;-89
2023/07/27 11:38:44;;;;;;;6.27;5.67;;;16.10;99.90;;;;;;5014591;28;20441;-90
2023/07/27 11:41:12;;;;;;;6.50;6.00;;;16.00;99.90;;;;;;5014315;28;20444;-89
2023/07/27 11:43:41;;;;;;;6.47;5.80;;;16.10;99.90;;;;;;5015191;28;20433;-89
2023/07/27 11:46:08;;;;;;;8.17;6.73;;;16.30;99.90;;;;;;5014309;28;20495;-89
2023/07/27 11:48:35;;;;;;;6.90;5.83;;;16.30;99.90;;;;;;5022964;28;20441;-89
2023/07/27 11:51:03;;;;;;;6.50;6.00;;;16.30;99.90;;;;;;5016129;28;20479;-88
2023/07/27 11:53:29;;;;;;;6.60;6.00;;;16.60;99.90;;;;;;5013750;28;20533;-89
2023/07/27 11:55:56;;;;;;;5.80;5.03;;;16.40;99.90;;;;;;5013556;28;20486;-89
2023/07/27 11:58:27;;;;;;;5.83;5.43;;;16.50;99.90;;;;;;5013539;28;20440;-89
2023/07/27 12:00:56;;;;;;;5.07;4.67;;;16.50;99.90;;;;;;5013613;28;20443;-89
2023/07/27 12:03:24;;;;;;;5.03;4.63;;;16.50;99.90;;;;;;5013505;28;20503;-90
2023/07/27 12:05:54;;;;;;;5.37;4.87;;;16.60;99.90;;;;;;5013090;28;20537;-89
2023/07/27 12:08:22;;;;;;;4.97;4.10;;;16.60;99.90;;;;;;5005274;28;20911;-89
2023/07/27 12:10:53;;;;;;;4.67;4.13;;;16.60;99.90;;;;;;5015372;28;20441;-91
2023/07/27 12:13:22;;;;;;;6.60;4.10;;;16.60;99.90;;;;;;5014462;28;20429;-90
2023/07/27 12:15:57;;;;;;;4.53;4.03;;;16.70;99.90;;;;;;5013396;28;20515;-90
2023/07/27 12:18:25;;;;;;;3.60;3.37;;;16.70;99.90;;;;;;5012848;28;20476;-89
2023/07/27 12:20:52;;;;;;;4.43;4.00;;;16.80;99.90;;;;;;5013884;28;20515;-89
2023/07/27 12:23:19;;;;;;;4.20;3.60;;;16.70;99.90;;;;;;5013828;28;20434;-89
2023/07/27 12:25:45;;;;;;;6.90;4.13;;;16.70;99.90;;;;;;5025916;28;20401;-90
2023/07/27 12:28:12;;;;;;;3.97;3.67;;;16.80;99.90;;;;;;5036912;28;20424;-91
2023/07/27 12:30:39;;;;;;;3.93;3.60;;;16.80;99.90;;;;;;5027499;28;20462;-89
2023/07/27 12:33:07;;;;;;;3.50;3.20;;;16.90;99.90;;;;;;5012561;28;20461;-89
2023/07/27 12:35:34;;;;;;;5.50;4.00;;;16.90;99.90;;;;;;5012082;28;20449;-89
2023/07/27 12:38:00;;;;;;;3.93;3.53;;;16.90;99.90;;;;;;5012869;28;20500;-89
2023/07/27 12:40:27;;;;;;;4.43;3.40;;;16.90;99.90;;;;;;5012421;28;20450;-89
2023/07/27 12:42:55;;;;;;;3.87;3.57;;;17.00;99.90;;;;;;5012453;28;20450;-89
2023/07/27 12:45:21;;;;;;;4.10;3.70;;;17.00;99.90;;;;;;5005101;28;20421;-90
2023/07/27 12:47:49;;;;;;;4.83;3.70;;;17.10;99.90;;;;;;5012332;28;20532;-89